sensor_id;sensor_type;location;lat;lon;timestamp;P1;durP1;ratioP1;P2;durP2;ratioP2
4210;SDS011;2119;48.828;12.396;2022-09-13T00:01:25;6.73;;;4.53;;
4210;SDS011;2119;48.828;12.396;2022-09-13T00:06:25;3.80;;;3.60;;
4210;SDS011;2119;48.828;12.396;2022-09-13T00:11:26;4.47;;;4.10;;
4210;SDS011;2119;48.828;12.396;2022-09-13T00:16:27;2.93;;;2.73;;
4210;SDS011;2119;48.828;12.396;2022-09-13T00:21:28;3.63;;;3.43;;
4210;SDS011;2119;48.828;12.396;2022-09-13T00:26:28;3.85;;;3.65;;
4210;SDS011;2119;48.828;12.396;2022-09-13T00:31:28;3.60;;;3.30;;
4210;SDS011;2119;48.828;12.396;2022-09-13T00:36:28;4.07;;;3.77;;
4210;SDS011;2119;48.828;12.396;2022-09-13T00:41:29;5.80;;;4.50;;
4210;SDS011;2119;48.828;12.396;2022-09-13T00:51:35;4.03;;;3.73;;
4210;SDS011;2119;48.828;12.396;2022-09-13T00:56:38;3.30;;;3.10;;
4210;SDS011;2119;48.828;12.396;2022-09-13T01:01:41;3.30;;;3.00;;
4210;SDS011;2119;48.828;12.396;2022-09-13T01:06:43;3.57;;;3.37;;
4210;SDS011;2119;48.828;12.396;2022-09-13T01:11:50;3.80;;;3.50;;
4210;SDS011;2119;48.828;12.396;2022-09-13T01:17:03;4.93;;;4.53;;
4210;SDS011;2119;48.828;12.396;2022-09-13T01:27:26;4.03;;;3.80;;
4210;SDS011;2119;48.828;12.396;2022-09-13T01:37:51;2.40;;;2.20;;
4210;SDS011;2119;48.828;12.396;2022-09-13T01:47:57;1.97;;;1.87;;
4210;SDS011;2119;48.828;12.396;2022-09-13T01:53:04;3.90;;;2.57;;
4210;SDS011;2119;48.828;12.396;2022-09-13T01:58:20;2.00;;;1.80;;
4210;SDS011;2119;48.828;12.396;2022-09-13T02:03:44;2.70;;;2.50;;
4210;SDS011;2119;48.828;12.396;2022-09-13T02:08:50;1.90;;;1.80;;
4210;SDS011;2119;48.828;12.396;2022-09-13T02:13:59;2.10;;;2.00;;
4210;SDS011;2119;48.828;12.396;2022-09-13T02:19:06;2.43;;;2.23;;
4210;SDS011;2119;48.828;12.396;2022-09-13T02:24:18;3.20;;;2.90;;
4210;SDS011;2119;48.828;12.396;2022-09-13T02:29:20;2.10;;;2.00;;
4210;SDS011;2119;48.828;12.396;2022-09-13T02:40:03;2.13;;;2.03;;
4210;SDS011;2119;48.828;12.396;2022-09-13T02:45:03;2.37;;;2.00;;
4210;SDS011;2119;48.828;12.396;2022-09-13T02:50:23;1.83;;;1.70;;
4210;SDS011;2119;48.828;12.396;2022-09-13T03:00:25;1.60;;;1.50;;
4210;SDS011;2119;48.828;12.396;2022-09-13T03:05:25;2.50;;;2.30;;
4210;SDS011;2119;48.828;12.396;2022-09-13T03:10:26;2.03;;;1.93;;
4210;SDS011;2119;48.828;12.396;2022-09-13T03:26:04;8.23;;;6.53;;
4210;SDS011;2119;48.828;12.396;2022-09-13T03:31:26;5.30;;;4.80;;
4210;SDS011;2119;48.828;12.396;2022-09-13T03:41:33;4.43;;;4.13;;
4210;SDS011;2119;48.828;12.396;2022-09-13T03:46:40;5.47;;;5.00;;
4210;SDS011;2119;48.828;12.396;2022-09-13T03:51:42;5.57;;;5.17;;
4210;SDS011;2119;48.828;12.396;2022-09-13T03:56:50;9.73;;;6.40;;
4210;SDS011;2119;48.828;12.396;2022-09-13T04:02:04;8.77;;;7.30;;
4210;SDS011;2119;48.828;12.396;2022-09-13T04:07:04;8.30;;;6.23;;
4210;SDS011;2119;48.828;12.396;2022-09-13T04:12:05;20.03;;;6.87;;
4210;SDS011;2119;48.828;12.396;2022-09-13T04:17:05;6.60;;;5.90;;
4210;SDS011;2119;48.828;12.396;2022-09-13T04:22:06;7.17;;;6.47;;
4210;SDS011;2119;48.828;12.396;2022-09-13T04:27:06;7.30;;;5.80;;
4210;SDS011;2119;48.828;12.396;2022-09-13T04:32:07;8.23;;;6.45;;
4210;SDS011;2119;48.828;12.396;2022-09-13T04:37:08;5.20;;;4.80;;
4210;SDS011;2119;48.828;12.396;2022-09-13T04:42:08;6.05;;;5.55;;
4210;SDS011;2119;48.828;12.396;2022-09-13T04:47:10;6.90;;;5.20;;
4210;SDS011;2119;48.828;12.396;2022-09-13T04:52:10;5.87;;;5.30;;
4210;SDS011;2119;48.828;12.396;2022-09-13T04:57:11;7.20;;;5.37;;
4210;SDS011;2119;48.828;12.396;2022-09-13T05:02:11;5.70;;;5.30;;
4210;SDS011;2119;48.828;12.396;2022-09-13T05:07:11;7.23;;;6.20;;
4210;SDS011;2119;48.828;12.396;2022-09-13T05:12:11;6.32;;;5.72;;
4210;SDS011;2119;48.828;12.396;2022-09-13T05:17:13;8.03;;;7.20;;
4210;SDS011;2119;48.828;12.396;2022-09-13T05:22:13;6.73;;;6.23;;
4210;SDS011;2119;48.828;12.396;2022-09-13T05:32:19;6.27;;;5.73;;
4210;SDS011;2119;48.828;12.396;2022-09-13T05:37:19;7.85;;;5.70;;
4210;SDS011;2119;48.828;12.396;2022-09-13T05:42:19;5.97;;;5.57;;
4210;SDS011;2119;48.828;12.396;2022-09-13T05:47:21;6.13;;;5.72;;
4210;SDS011;2119;48.828;12.396;2022-09-13T05:52:22;5.87;;;5.47;;
4210;SDS011;2119;48.828;12.396;2022-09-13T05:57:22;7.33;;;6.73;;
4210;SDS011;2119;48.828;12.396;2022-09-13T06:02:22;6.03;;;5.60;;
4210;SDS011;2119;48.828;12.396;2022-09-13T06:07:23;6.50;;;6.03;;
4210;SDS011;2119;48.828;12.396;2022-09-13T06:12:23;7.75;;;7.15;;
4210;SDS011;2119;48.828;12.396;2022-09-13T06:17:24;7.20;;;6.60;;
4210;SDS011;2119;48.828;12.396;2022-09-13T06:22:24;7.93;;;7.23;;
4210;SDS011;2119;48.828;12.396;2022-09-13T06:27:31;9.23;;;7.70;;
4210;SDS011;2119;48.828;12.396;2022-09-13T06:32:32;8.50;;;7.90;;
4210;SDS011;2119;48.828;12.396;2022-09-13T06:37:32;10.65;;;9.55;;
4210;SDS011;2119;48.828;12.396;2022-09-13T06:42:34;12.00;;;10.77;;
4210;SDS011;2119;48.828;12.396;2022-09-13T06:47:34;12.70;;;11.07;;
4210;SDS011;2119;48.828;12.396;2022-09-13T06:52:34;12.57;;;9.93;;
4210;SDS011;2119;48.828;12.396;2022-09-13T06:57:36;12.50;;;10.80;;
4210;SDS011;2119;48.828;12.396;2022-09-13T07:02:36;12.53;;;11.33;;
4210;SDS011;2119;48.828;12.396;2022-09-13T07:07:36;12.93;;;11.67;;
4210;SDS011;2119;48.828;12.396;2022-09-13T07:12:39;17.85;;;11.65;;
4210;SDS011;2119;48.828;12.396;2022-09-13T07:17:40;13.50;;;12.10;;
4210;SDS011;2119;48.828;12.396;2022-09-13T07:22:40;12.87;;;11.50;;
4210;SDS011;2119;48.828;12.396;2022-09-13T07:27:40;11.95;;;10.68;;
4210;SDS011;2119;48.828;12.396;2022-09-13T07:32:41;12.93;;;10.43;;
4210;SDS011;2119;48.828;12.396;2022-09-13T07:37:41;13.10;;;10.40;;
4210;SDS011;2119;48.828;12.396;2022-09-13T07:42:44;11.23;;;10.13;;
4210;SDS011;2119;48.828;12.396;2022-09-13T07:47:44;11.57;;;10.47;;
4210;SDS011;2119;48.828;12.396;2022-09-13T07:52:45;12.60;;;9.97;;
4210;SDS011;2119;48.828;12.396;2022-09-13T07:57:46;11.50;;;10.00;;
4210;SDS011;2119;48.828;12.396;2022-09-13T08:02:46;11.35;;;8.80;;
4210;SDS011;2119;48.828;12.396;2022-09-13T08:07:46;10.27;;;9.30;;
4210;SDS011;2119;48.828;12.396;2022-09-13T08:12:47;10.63;;;9.00;;
4210;SDS011;2119;48.828;12.396;2022-09-13T08:17:47;9.93;;;8.97;;
4210;SDS011;2119;48.828;12.396;2022-09-13T08:22:47;9.90;;;8.90;;
4210;SDS011;2119;48.828;12.396;2022-09-13T08:27:47;8.67;;;7.80;;
4210;SDS011;2119;48.828;12.396;2022-09-13T08:32:51;8.93;;;7.37;;
4210;SDS011;2119;48.828;12.396;2022-09-13T08:37:51;8.53;;;7.90;;
4210;SDS011;2119;48.828;12.396;2022-09-13T08:48:02;7.87;;;7.07;;
4210;SDS011;2119;48.828;12.396;2022-09-13T08:53:21;7.80;;;7.23;;
4210;SDS011;2119;48.828;12.396;2022-09-13T08:58:37;7.10;;;6.50;;
4210;SDS011;2119;48.828;12.396;2022-09-13T09:03:55;10.60;;;7.03;;
4210;SDS011;2119;48.828;12.396;2022-09-13T09:08:58;6.67;;;6.27;;
4210;SDS011;2119;48.828;12.396;2022-09-13T09:19:23;8.70;;;7.00;;
4210;SDS011;2119;48.828;12.396;2022-09-13T09:24:23;7.43;;;6.83;;
4210;SDS011;2119;48.828;12.396;2022-09-13T09:29:25;6.60;;;6.20;;
4210;SDS011;2119;48.828;12.396;2022-09-13T09:39:36;7.00;;;6.50;;
4210;SDS011;2119;48.828;12.396;2022-09-13T09:44:38;6.70;;;6.10;;
4210;SDS011;2119;48.828;12.396;2022-09-13T09:49:40;6.70;;;6.13;;
4210;SDS011;2119;48.828;12.396;2022-09-13T09:55:09;7.07;;;6.47;;
4210;SDS011;2119;48.828;12.396;2022-09-13T10:00:11;5.63;;;5.33;;
4210;SDS011;2119;48.828;12.396;2022-09-13T10:05:12;6.10;;;5.70;;
4210;SDS011;2119;48.828;12.396;2022-09-13T10:15:20;5.40;;;5.03;;
4210;SDS011;2119;48.828;12.396;2022-09-13T10:20:21;6.70;;;6.10;;
4210;SDS011;2119;48.828;12.396;2022-09-13T10:25:24;6.20;;;5.70;;
4210;SDS011;2119;48.828;12.396;2022-09-13T10:30:37;5.73;;;5.30;;
4210;SDS011;2119;48.828;12.396;2022-09-13T10:35:39;6.00;;;5.60;;
4210;SDS011;2119;48.828;12.396;2022-09-13T10:40:40;5.17;;;4.83;;
4210;SDS011;2119;48.828;12.396;2022-09-13T10:45:40;6.45;;;5.95;;
4210;SDS011;2119;48.828;12.396;2022-09-13T10:50:58;6.23;;;5.63;;
4210;SDS011;2119;48.828;12.396;2022-09-13T10:55:59;5.93;;;5.30;;
4210;SDS011;2119;48.828;12.396;2022-09-13T11:01:02;6.10;;;5.60;;
4210;SDS011;2119;48.828;12.396;2022-09-13T11:21:17;6.57;;;5.97;;
4210;SDS011;2119;48.828;12.396;2022-09-13T11:26:33;6.60;;;6.00;;
4210;SDS011;2119;48.828;12.396;2022-09-13T11:31:42;7.07;;;6.57;;
4210;SDS011;2119;48.828;12.396;2022-09-13T11:57:39;6.60;;;6.00;;
4210;SDS011;2119;48.828;12.396;2022-09-13T12:12:56;8.30;;;7.60;;
4210;SDS011;2119;48.828;12.396;2022-09-13T12:18:04;8.57;;;7.83;;
4210;SDS011;2119;48.828;12.396;2022-09-13T12:23:08;7.90;;;7.20;;
4210;SDS011;2119;48.828;12.396;2022-09-13T12:33:14;7.27;;;6.67;;
4210;SDS011;2119;48.828;12.396;2022-09-13T12:38:51;8.90;;;8.00;;
4210;SDS011;2119;48.828;12.396;2022-09-13T12:54:27;6.90;;;6.20;;
4210;SDS011;2119;48.828;12.396;2022-09-13T13:04:34;7.00;;;6.60;;
4210;SDS011;2119;48.828;12.396;2022-09-13T13:19:38;7.40;;;6.80;;
4210;SDS011;2119;48.828;12.396;2022-09-13T13:24:42;6.73;;;6.33;;
4210;SDS011;2119;48.828;12.396;2022-09-13T13:29:44;8.13;;;7.53;;
4210;SDS011;2119;48.828;12.396;2022-09-13T13:34:47;8.70;;;8.00;;
4210;SDS011;2119;48.828;12.396;2022-09-13T13:40:09;8.97;;;8.07;;
4210;SDS011;2119;48.828;12.396;2022-09-13T13:45:15;8.33;;;7.53;;
4210;SDS011;2119;48.828;12.396;2022-09-13T13:50:16;9.87;;;8.60;;
4210;SDS011;2119;48.828;12.396;2022-09-13T13:55:36;11.00;;;9.90;;
4210;SDS011;2119;48.828;12.396;2022-09-13T14:00:37;10.63;;;9.63;;
4210;SDS011;2119;48.828;12.396;2022-09-13T14:05:50;10.00;;;9.00;;
4210;SDS011;2119;48.828;12.396;2022-09-13T14:15:56;8.23;;;7.43;;
4210;SDS011;2119;48.828;12.396;2022-09-13T14:21:04;8.30;;;7.77;;
4210;SDS011;2119;48.828;12.396;2022-09-13T14:26:17;7.70;;;7.20;;
4210;SDS011;2119;48.828;12.396;2022-09-13T14:31:17;8.10;;;7.40;;
4210;SDS011;2119;48.828;12.396;2022-09-13T14:36:19;7.70;;;7.03;;
4210;SDS011;2119;48.828;12.396;2022-09-13T14:41:21;8.50;;;7.60;;
4210;SDS011;2119;48.828;12.396;2022-09-13T14:46:26;8.53;;;7.33;;
4210;SDS011;2119;48.828;12.396;2022-09-13T14:51:28;7.27;;;6.63;;
4210;SDS011;2119;48.828;12.396;2022-09-13T14:56:38;7.40;;;6.80;;
4210;SDS011;2119;48.828;12.396;2022-09-13T15:01:40;7.50;;;6.80;;
4210;SDS011;2119;48.828;12.396;2022-09-13T15:06:40;9.50;;;8.80;;
4210;SDS011;2119;48.828;12.396;2022-09-13T15:11:54;7.97;;;7.27;;
4210;SDS011;2119;48.828;12.396;2022-09-13T15:16:58;8.47;;;7.40;;
4210;SDS011;2119;48.828;12.396;2022-09-13T15:22:04;9.07;;;8.37;;
4210;SDS011;2119;48.828;12.396;2022-09-13T15:27:15;8.27;;;7.37;;
4210;SDS011;2119;48.828;12.396;2022-09-13T15:32:24;7.47;;;6.90;;
4210;SDS011;2119;48.828;12.396;2022-09-13T15:37:29;9.70;;;8.90;;
4210;SDS011;2119;48.828;12.396;2022-09-13T15:42:30;10.20;;;9.20;;
4210;SDS011;2119;48.828;12.396;2022-09-13T15:47:30;8.10;;;7.50;;
4210;SDS011;2119;48.828;12.396;2022-09-13T15:52:30;8.68;;;8.07;;
4210;SDS011;2119;48.828;12.396;2022-09-13T15:57:31;7.63;;;7.03;;
4210;SDS011;2119;48.828;12.396;2022-09-13T16:02:32;8.37;;;7.77;;
4210;SDS011;2119;48.828;12.396;2022-09-13T16:07:32;8.23;;;7.47;;
4210;SDS011;2119;48.828;12.396;2022-09-13T16:12:32;9.30;;;8.40;;
4210;SDS011;2119;48.828;12.396;2022-09-13T16:17:33;10.00;;;9.07;;
4210;SDS011;2119;48.828;12.396;2022-09-13T16:22:33;9.93;;;8.70;;
4210;SDS011;2119;48.828;12.396;2022-09-13T16:27:34;11.20;;;9.57;;
4210;SDS011;2119;48.828;12.396;2022-09-13T16:32:34;11.63;;;8.90;;
4210;SDS011;2119;48.828;12.396;2022-09-13T16:37:35;9.00;;;8.30;;
4210;SDS011;2119;48.828;12.396;2022-09-13T16:42:35;9.30;;;8.60;;
4210;SDS011;2119;48.828;12.396;2022-09-13T16:47:35;10.70;;;9.80;;
4210;SDS011;2119;48.828;12.396;2022-09-13T16:52:35;10.10;;;8.90;;
4210;SDS011;2119;48.828;12.396;2022-09-13T16:57:36;9.40;;;8.60;;
4210;SDS011;2119;48.828;12.396;2022-09-13T17:02:36;14.70;;;13.50;;
4210;SDS011;2119;48.828;12.396;2022-09-13T17:07:37;12.57;;;11.47;;
4210;SDS011;2119;48.828;12.396;2022-09-13T17:12:37;9.43;;;8.73;;
4210;SDS011;2119;48.828;12.396;2022-09-13T17:17:38;9.13;;;8.50;;
4210;SDS011;2119;48.828;12.396;2022-09-13T17:22:38;10.83;;;9.90;;
4210;SDS011;2119;48.828;12.396;2022-09-13T17:27:39;9.57;;;8.97;;
4210;SDS011;2119;48.828;12.396;2022-09-13T17:32:39;9.55;;;8.85;;
4210;SDS011;2119;48.828;12.396;2022-09-13T17:37:39;9.97;;;9.07;;
4210;SDS011;2119;48.828;12.396;2022-09-13T17:42:39;9.48;;;8.55;;
4210;SDS011;2119;48.828;12.396;2022-09-13T17:47:41;8.10;;;7.50;;
4210;SDS011;2119;48.828;12.396;2022-09-13T17:52:41;8.87;;;8.27;;
4210;SDS011;2119;48.828;12.396;2022-09-13T17:57:41;8.63;;;7.93;;
4210;SDS011;2119;48.828;12.396;2022-09-13T18:02:45;9.33;;;8.53;;
4210;SDS011;2119;48.828;12.396;2022-09-13T18:07:45;26.33;;;23.60;;
4210;SDS011;2119;48.828;12.396;2022-09-13T18:12:45;16.90;;;15.47;;
4210;SDS011;2119;48.828;12.396;2022-09-13T18:17:46;14.18;;;12.88;;
4210;SDS011;2119;48.828;12.396;2022-09-13T18:22:46;13.73;;;12.43;;
4210;SDS011;2119;48.828;12.396;2022-09-13T18:27:46;15.33;;;13.80;;
4210;SDS011;2119;48.828;12.396;2022-09-13T18:32:46;13.70;;;12.50;;
4210;SDS011;2119;48.828;12.396;2022-09-13T18:37:47;14.60;;;13.10;;
4210;SDS011;2119;48.828;12.396;2022-09-13T18:42:47;11.47;;;10.30;;
4210;SDS011;2119;48.828;12.396;2022-09-13T18:47:47;12.17;;;11.07;;
4210;SDS011;2119;48.828;12.396;2022-09-13T18:52:47;14.77;;;12.27;;
4210;SDS011;2119;48.828;12.396;2022-09-13T18:57:48;12.85;;;11.63;;
4210;SDS011;2119;48.828;12.396;2022-09-13T19:02:48;13.00;;;11.70;;
4210;SDS011;2119;48.828;12.396;2022-09-13T19:07:49;12.87;;;11.77;;
4210;SDS011;2119;48.828;12.396;2022-09-13T19:12:49;12.73;;;11.63;;
4210;SDS011;2119;48.828;12.396;2022-09-13T19:17:50;14.85;;;13.32;;
4210;SDS011;2119;48.828;12.396;2022-09-13T19:22:51;13.13;;;12.03;;
4210;SDS011;2119;48.828;12.396;2022-09-13T19:27:51;14.13;;;12.73;;
4210;SDS011;2119;48.828;12.396;2022-09-13T19:32:52;18.30;;;16.80;;
4210;SDS011;2119;48.828;12.396;2022-09-13T19:37:52;13.47;;;11.53;;
4210;SDS011;2119;48.828;12.396;2022-09-13T19:42:53;13.73;;;12.63;;
4210;SDS011;2119;48.828;12.396;2022-09-13T19:47:53;13.50;;;12.20;;
4210;SDS011;2119;48.828;12.396;2022-09-13T19:52:53;12.97;;;11.60;;
4210;SDS011;2119;48.828;12.396;2022-09-13T19:57:54;14.32;;;12.88;;
4210;SDS011;2119;48.828;12.396;2022-09-13T20:02:54;12.57;;;11.47;;
4210;SDS011;2119;48.828;12.396;2022-09-13T20:07:54;12.60;;;11.30;;
4210;SDS011;2119;48.828;12.396;2022-09-13T20:12:56;13.00;;;11.38;;
4210;SDS011;2119;48.828;12.396;2022-09-13T20:17:56;11.70;;;10.50;;
4210;SDS011;2119;48.828;12.396;2022-09-13T20:22:57;11.80;;;10.70;;
4210;SDS011;2119;48.828;12.396;2022-09-13T20:27:57;13.40;;;12.00;;
4210;SDS011;2119;48.828;12.396;2022-09-13T20:32:57;12.53;;;11.33;;
4210;SDS011;2119;48.828;12.396;2022-09-13T20:37:57;13.03;;;11.30;;
4210;SDS011;2119;48.828;12.396;2022-09-13T20:42:57;13.20;;;11.77;;
4210;SDS011;2119;48.828;12.396;2022-09-13T20:47:58;12.57;;;11.30;;
4210;SDS011;2119;48.828;12.396;2022-09-13T20:52:58;13.47;;;12.17;;
4210;SDS011;2119;48.828;12.396;2022-09-13T20:58:00;11.50;;;10.47;;
4210;SDS011;2119;48.828;12.396;2022-09-13T21:03:00;11.52;;;10.38;;
4210;SDS011;2119;48.828;12.396;2022-09-13T21:08:00;11.10;;;10.20;;
4210;SDS011;2119;48.828;12.396;2022-09-13T21:13:19;12.17;;;10.93;;
4210;SDS011;2119;48.828;12.396;2022-09-13T21:18:19;11.20;;;10.30;;
4210;SDS011;2119;48.828;12.396;2022-09-13T21:23:20;11.77;;;10.68;;
4210;SDS011;2119;48.828;12.396;2022-09-13T21:28:20;13.30;;;12.10;;
4210;SDS011;2119;48.828;12.396;2022-09-13T21:33:20;14.38;;;13.10;;
4210;SDS011;2119;48.828;12.396;2022-09-13T21:38:20;11.20;;;10.27;;
4210;SDS011;2119;48.828;12.396;2022-09-13T21:43:21;11.90;;;10.57;;
4210;SDS011;2119;48.828;12.396;2022-09-13T21:48:21;11.53;;;10.40;;
4210;SDS011;2119;48.828;12.396;2022-09-13T21:53:21;11.30;;;10.40;;
4210;SDS011;2119;48.828;12.396;2022-09-13T21:58:22;11.80;;;10.80;;
4210;SDS011;2119;48.828;12.396;2022-09-13T22:03:22;11.85;;;10.82;;
4210;SDS011;2119;48.828;12.396;2022-09-13T22:08:22;11.87;;;10.77;;
4210;SDS011;2119;48.828;12.396;2022-09-13T22:13:23;10.03;;;9.13;;
4210;SDS011;2119;48.828;12.396;2022-09-13T22:18:23;12.88;;;11.65;;
4210;SDS011;2119;48.828;12.396;2022-09-13T22:23:23;19.80;;;18.10;;
4210;SDS011;2119;48.828;12.396;2022-09-13T22:28:23;13.60;;;12.20;;
4210;SDS011;2119;48.828;12.396;2022-09-13T22:33:24;13.80;;;12.50;;
4210;SDS011;2119;48.828;12.396;2022-09-13T22:38:24;11.20;;;10.10;;
4210;SDS011;2119;48.828;12.396;2022-09-13T22:43:25;13.60;;;11.73;;
4210;SDS011;2119;48.828;12.396;2022-09-13T22:48:25;10.50;;;9.50;;
4210;SDS011;2119;48.828;12.396;2022-09-13T22:53:25;10.97;;;10.07;;
4210;SDS011;2119;48.828;12.396;2022-09-13T22:58:25;10.52;;;9.40;;
4210;SDS011;2119;48.828;12.396;2022-09-13T23:03:26;10.90;;;9.90;;
4210;SDS011;2119;48.828;12.396;2022-09-13T23:08:26;10.90;;;9.93;;
4210;SDS011;2119;48.828;12.396;2022-09-13T23:13:27;12.17;;;11.07;;
4210;SDS011;2119;48.828;12.396;2022-09-13T23:18:27;11.47;;;10.47;;
4210;SDS011;2119;48.828;12.396;2022-09-13T23:23:27;11.40;;;10.45;;
4210;SDS011;2119;48.828;12.396;2022-09-13T23:28:27;11.25;;;9.50;;
4210;SDS011;2119;48.828;12.396;2022-09-13T23:33:30;10.57;;;9.57;;
4210;SDS011;2119;48.828;12.396;2022-09-13T23:38:30;10.80;;;9.90;;
4210;SDS011;2119;48.828;12.396;2022-09-13T23:43:30;10.25;;;9.45;;
4210;SDS011;2119;48.828;12.396;2022-09-13T23:48:30;10.30;;;9.45;;
4210;SDS011;2119;48.828;12.396;2022-09-13T23:53:31;11.77;;;10.80;;
4210;SDS011;2119;48.828;12.396;2022-09-13T23:58:31;11.77;;;10.77;;
